Airfield :
LOGIN :

Register | Disclaimer

   EN    FR    IT 

 










Legend :    VFR   Marginal VFR   IFR   Intensive IFR   Very Intensive IFR
Visi :
Ceiling :
>= 8 km
>= 3000ft
5 to 8 km
1000 to 3000 ft
1500m to 5 km
500 to 1000 ft
800 to 1500m
200 to 500 ft
< 800m
< 200 ft
Symbols :   Thunderstorms  Fog  Heavy snow  Heavy precipitations  Wind > 20 kt
SIGMETs :     Misc.  Thunderstorms  Icing  Turbulence  Mountain Waves  Volcanic Ashes







- Airport Elevation : 348 ft
- IATA code : STN
- Download approach charts


EGSS - London Stansted

CURRENT METAR :
  • 252120Z AUTO 08006KT 9999 NCD 14/10 Q1023

EXPIRED METARs :
  • 252050Z AUTO 10007KT 9999 NCD 16/09 Q1023
  • 252020Z AUTO 10008KT 080V170 9999 NCD 17/10 Q1022
  • 251950Z AUTO 11008KT 070V140 9999 NCD 17/11 Q1022
  • 251920Z AUTO 12007KT 9999 NCD 18/12 Q1022
  • 251850Z AUTO 13009KT 100V170 9999 NCD 19/13 Q1022

TAF TAF EGSS
Valid from the 25 at 18:00 until the 27 at 00:00 UTC


251653Z 2518/2624 13009KT 9999 FEW030
PROB30 2600/2607 8000
ATIS : +44 1279 669 325
No reported NOTAMs for that airfield.



MET'MAP, your aeronautical weather chart ! - Copyright ORBIFLY December 2007 - Disclaimer

ORBIFLY MET'MAP TEAM :

Programming & Development : Alexandra Zaïnal
Concept & Development : Baudouin d'Aumeries
Co-Development & Prog : Marc-Olivier Méhu
Technical & hardware support : Manuel Goepfert

Contact : metmap@orbifly.com




SOURCES & CREDITS :

   NOAA